sensor_id;sensor_type;location;lat;lon;timestamp;P1;durP1;ratioP1;P2;durP2;ratioP2
20093;SDS011;10206;48.012;10.030;2022-08-19T00:01:38;19.30;;;16.20;;
20093;SDS011;10206;48.012;10.030;2022-08-19T00:04:06;19.90;;;17.02;;
20093;SDS011;10206;48.012;10.030;2022-08-19T00:06:33;19.38;;;15.90;;
20093;SDS011;10206;48.012;10.030;2022-08-19T00:09:00;18.95;;;16.67;;
20093;SDS011;10206;48.012;10.030;2022-08-19T00:11:27;19.45;;;15.20;;
20093;SDS011;10206;48.012;10.030;2022-08-19T00:13:53;22.30;;;15.38;;
20093;SDS011;10206;48.012;10.030;2022-08-19T00:16:20;17.52;;;15.70;;
20093;SDS011;10206;48.012;10.030;2022-08-19T00:18:47;16.10;;;14.50;;
20093;SDS011;10206;48.012;10.030;2022-08-19T00:21:13;18.38;;;16.30;;
20093;SDS011;10206;48.012;10.030;2022-08-19T00:23:39;15.75;;;13.93;;
20093;SDS011;10206;48.012;10.030;2022-08-19T00:26:05;14.90;;;12.82;;
20093;SDS011;10206;48.012;10.030;2022-08-19T00:28:32;14.82;;;13.23;;
20093;SDS011;10206;48.012;10.030;2022-08-19T00:30:59;14.70;;;13.00;;
20093;SDS011;10206;48.012;10.030;2022-08-19T00:33:26;14.15;;;12.65;;
20093;SDS011;10206;48.012;10.030;2022-08-19T00:35:54;14.55;;;13.05;;
20093;SDS011;10206;48.012;10.030;2022-08-19T00:38:20;15.25;;;13.65;;
20093;SDS011;10206;48.012;10.030;2022-08-19T00:40:47;15.85;;;13.07;;
20093;SDS011;10206;48.012;10.030;2022-08-19T00:43:14;14.50;;;13.00;;
20093;SDS011;10206;48.012;10.030;2022-08-19T00:45:43;13.85;;;12.40;;
20093;SDS011;10206;48.012;10.030;2022-08-19T00:48:10;14.60;;;13.10;;
20093;SDS011;10206;48.012;10.030;2022-08-19T00:50:36;13.63;;;12.23;;
20093;SDS011;10206;48.012;10.030;2022-08-19T00:53:05;14.32;;;12.32;;
20093;SDS011;10206;48.012;10.030;2022-08-19T00:55:32;14.77;;;12.57;;
20093;SDS011;10206;48.012;10.030;2022-08-19T00:58:02;15.48;;;12.48;;
20093;SDS011;10206;48.012;10.030;2022-08-19T01:00:30;13.73;;;12.32;;
20093;SDS011;10206;48.012;10.030;2022-08-19T01:02:56;13.50;;;11.52;;
20093;SDS011;10206;48.012;10.030;2022-08-19T01:05:25;12.88;;;11.55;;
20093;SDS011;10206;48.012;10.030;2022-08-19T01:07:52;13.60;;;12.20;;
20093;SDS011;10206;48.012;10.030;2022-08-19T01:10:20;16.13;;;14.52;;
20093;SDS011;10206;48.012;10.030;2022-08-19T01:12:47;14.77;;;13.18;;
20093;SDS011;10206;48.012;10.030;2022-08-19T01:15:15;17.05;;;15.02;;
20093;SDS011;10206;48.012;10.030;2022-08-19T01:17:41;16.98;;;14.73;;
20093;SDS011;10206;48.012;10.030;2022-08-19T01:20:15;16.75;;;15.00;;
20093;SDS011;10206;48.012;10.030;2022-08-19T01:22:48;15.18;;;13.55;;
20093;SDS011;10206;48.012;10.030;2022-08-19T01:25:16;16.40;;;14.70;;
20093;SDS011;10206;48.012;10.030;2022-08-19T01:27:46;15.30;;;13.70;;
20093;SDS011;10206;48.012;10.030;2022-08-19T01:30:24;16.80;;;14.77;;
20093;SDS011;10206;48.012;10.030;2022-08-19T01:32:51;15.90;;;14.18;;
20093;SDS011;10206;48.012;10.030;2022-08-19T01:35:17;15.63;;;13.98;;
20093;SDS011;10206;48.012;10.030;2022-08-19T01:37:47;16.23;;;13.63;;
20093;SDS011;10206;48.012;10.030;2022-08-19T01:40:14;15.57;;;13.98;;
20093;SDS011;10206;48.012;10.030;2022-08-19T01:42:40;15.93;;;14.35;;
20093;SDS011;10206;48.012;10.030;2022-08-19T01:45:07;16.45;;;14.75;;
20093;SDS011;10206;48.012;10.030;2022-08-19T01:47:36;15.65;;;14.05;;
20093;SDS011;10206;48.012;10.030;2022-08-19T01:50:03;18.38;;;15.13;;
20093;SDS011;10206;48.012;10.030;2022-08-19T01:52:29;18.83;;;15.13;;
20093;SDS011;10206;48.012;10.030;2022-08-19T01:54:55;19.45;;;15.68;;
20093;SDS011;10206;48.012;10.030;2022-08-19T01:57:21;17.60;;;15.73;;
20093;SDS011;10206;48.012;10.030;2022-08-19T01:59:47;17.52;;;15.68;;
20093;SDS011;10206;48.012;10.030;2022-08-19T02:02:13;18.88;;;16.98;;
20093;SDS011;10206;48.012;10.030;2022-08-19T02:04:39;19.08;;;17.05;;
20093;SDS011;10206;48.012;10.030;2022-08-19T02:07:06;18.75;;;16.65;;
20093;SDS011;10206;48.012;10.030;2022-08-19T02:09:32;20.38;;;16.35;;
20093;SDS011;10206;48.012;10.030;2022-08-19T02:11:58;21.83;;;16.88;;
20093;SDS011;10206;48.012;10.030;2022-08-19T02:14:25;18.52;;;16.52;;
20093;SDS011;10206;48.012;10.030;2022-08-19T02:16:51;20.85;;;17.23;;
20093;SDS011;10206;48.012;10.030;2022-08-19T02:19:16;19.00;;;17.00;;
20093;SDS011;10206;48.012;10.030;2022-08-19T02:21:42;19.70;;;16.98;;
20093;SDS011;10206;48.012;10.030;2022-08-19T02:24:09;17.50;;;15.60;;
20093;SDS011;10206;48.012;10.030;2022-08-19T02:26:35;18.73;;;16.73;;
20093;SDS011;10206;48.012;10.030;2022-08-19T02:29:01;18.02;;;16.23;;
20093;SDS011;10206;48.012;10.030;2022-08-19T02:31:27;18.23;;;15.88;;
20093;SDS011;10206;48.012;10.030;2022-08-19T02:33:53;18.65;;;16.67;;
20093;SDS011;10206;48.012;10.030;2022-08-19T02:36:20;19.33;;;17.20;;
20093;SDS011;10206;48.012;10.030;2022-08-19T02:38:46;18.92;;;15.95;;
20093;SDS011;10206;48.012;10.030;2022-08-19T02:41:23;20.27;;;17.60;;
20093;SDS011;10206;48.012;10.030;2022-08-19T02:43:49;18.73;;;16.83;;
20093;SDS011;10206;48.012;10.030;2022-08-19T02:46:16;23.35;;;19.67;;
20093;SDS011;10206;48.012;10.030;2022-08-19T02:48:46;28.65;;;21.90;;
20093;SDS011;10206;48.012;10.030;2022-08-19T02:51:15;27.35;;;22.75;;
20093;SDS011;10206;48.012;10.030;2022-08-19T02:53:41;31.05;;;24.85;;
20093;SDS011;10206;48.012;10.030;2022-08-19T02:56:07;33.17;;;24.55;;
20093;SDS011;10206;48.012;10.030;2022-08-19T02:58:33;35.25;;;26.65;;
20093;SDS011;10206;48.012;10.030;2022-08-19T03:00:59;33.65;;;27.90;;
20093;SDS011;10206;48.012;10.030;2022-08-19T03:03:26;37.08;;;29.73;;
20093;SDS011;10206;48.012;10.030;2022-08-19T03:06:01;37.72;;;29.02;;
20093;SDS011;10206;48.012;10.030;2022-08-19T03:08:28;37.13;;;29.10;;
20093;SDS011;10206;48.012;10.030;2022-08-19T03:10:54;34.38;;;27.65;;
20093;SDS011;10206;48.012;10.030;2022-08-19T03:13:21;36.05;;;28.60;;
20093;SDS011;10206;48.012;10.030;2022-08-19T03:15:48;37.25;;;29.75;;
20093;SDS011;10206;48.012;10.030;2022-08-19T03:18:15;35.85;;;29.55;;
20093;SDS011;10206;48.012;10.030;2022-08-19T03:20:42;36.38;;;28.08;;
20093;SDS011;10206;48.012;10.030;2022-08-19T03:23:09;33.92;;;28.30;;
20093;SDS011;10206;48.012;10.030;2022-08-19T03:25:36;33.15;;;28.25;;
20093;SDS011;10206;48.012;10.030;2022-08-19T03:28:03;32.13;;;28.17;;
20093;SDS011;10206;48.012;10.030;2022-08-19T03:30:29;33.80;;;27.45;;
20093;SDS011;10206;48.012;10.030;2022-08-19T03:32:55;33.75;;;27.35;;
20093;SDS011;10206;48.012;10.030;2022-08-19T03:35:22;34.45;;;27.58;;
20093;SDS011;10206;48.012;10.030;2022-08-19T03:37:48;35.20;;;27.15;;
20093;SDS011;10206;48.012;10.030;2022-08-19T03:40:14;32.60;;;27.08;;
20093;SDS011;10206;48.012;10.030;2022-08-19T03:42:40;32.15;;;27.20;;
20093;SDS011;10206;48.012;10.030;2022-08-19T03:45:07;29.55;;;25.15;;
20093;SDS011;10206;48.012;10.030;2022-08-19T03:47:35;31.85;;;26.52;;
20093;SDS011;10206;48.012;10.030;2022-08-19T03:50:02;34.50;;;28.85;;
20093;SDS011;10206;48.012;10.030;2022-08-19T03:52:29;33.13;;;26.95;;
20093;SDS011;10206;48.012;10.030;2022-08-19T03:54:55;34.63;;;27.83;;
20093;SDS011;10206;48.012;10.030;2022-08-19T03:57:21;37.47;;;29.00;;
20093;SDS011;10206;48.012;10.030;2022-08-19T03:59:47;32.67;;;27.45;;
20093;SDS011;10206;48.012;10.030;2022-08-19T04:02:13;30.75;;;25.75;;
20093;SDS011;10206;48.012;10.030;2022-08-19T04:04:40;31.63;;;25.48;;
20093;SDS011;10206;48.012;10.030;2022-08-19T04:07:08;34.33;;;26.90;;
20093;SDS011;10206;48.012;10.030;2022-08-19T04:09:34;32.22;;;25.55;;
20093;SDS011;10206;48.012;10.030;2022-08-19T04:12:04;30.98;;;25.88;;
20093;SDS011;10206;48.012;10.030;2022-08-19T04:14:31;34.28;;;26.95;;
20093;SDS011;10206;48.012;10.030;2022-08-19T04:16:59;29.52;;;24.88;;
20093;SDS011;10206;48.012;10.030;2022-08-19T04:19:25;31.42;;;25.40;;
20093;SDS011;10206;48.012;10.030;2022-08-19T04:21:52;33.08;;;27.35;;
20093;SDS011;10206;48.012;10.030;2022-08-19T04:24:18;32.70;;;26.80;;
20093;SDS011;10206;48.012;10.030;2022-08-19T04:26:45;32.47;;;27.02;;
20093;SDS011;10206;48.012;10.030;2022-08-19T04:29:13;32.22;;;26.80;;
20093;SDS011;10206;48.012;10.030;2022-08-19T04:31:39;32.83;;;26.13;;
20093;SDS011;10206;48.012;10.030;2022-08-19T04:34:07;29.52;;;24.98;;
20093;SDS011;10206;48.012;10.030;2022-08-19T04:36:33;30.73;;;25.88;;
20093;SDS011;10206;48.012;10.030;2022-08-19T04:39:01;29.42;;;25.13;;
20093;SDS011;10206;48.012;10.030;2022-08-19T04:41:27;28.83;;;24.23;;
20093;SDS011;10206;48.012;10.030;2022-08-19T04:44:12;29.15;;;23.85;;
20093;SDS011;10206;48.012;10.030;2022-08-19T04:46:39;26.92;;;22.42;;
20093;SDS011;10206;48.012;10.030;2022-08-19T04:49:05;27.65;;;23.55;;
20093;SDS011;10206;48.012;10.030;2022-08-19T04:51:33;28.83;;;23.83;;
20093;SDS011;10206;48.012;10.030;2022-08-19T04:54:00;28.65;;;23.20;;
20093;SDS011;10206;48.012;10.030;2022-08-19T04:56:26;28.48;;;23.52;;
20093;SDS011;10206;48.012;10.030;2022-08-19T04:58:53;26.77;;;22.80;;
20093;SDS011;10206;48.012;10.030;2022-08-19T05:01:24;28.17;;;23.10;;
20093;SDS011;10206;48.012;10.030;2022-08-19T05:03:50;27.58;;;22.63;;
20093;SDS011;10206;48.012;10.030;2022-08-19T05:06:18;28.63;;;22.52;;
20093;SDS011;10206;48.012;10.030;2022-08-19T05:08:44;28.50;;;22.70;;
20093;SDS011;10206;48.012;10.030;2022-08-19T05:11:18;26.85;;;22.42;;
20093;SDS011;10206;48.012;10.030;2022-08-19T05:13:45;25.58;;;21.63;;
20093;SDS011;10206;48.012;10.030;2022-08-19T05:16:12;28.83;;;21.67;;
20093;SDS011;10206;48.012;10.030;2022-08-19T05:18:39;30.10;;;23.08;;
20093;SDS011;10206;48.012;10.030;2022-08-19T05:21:24;28.30;;;23.13;;
20093;SDS011;10206;48.012;10.030;2022-08-19T05:24:10;30.50;;;25.00;;
20093;SDS011;10206;48.012;10.030;2022-08-19T05:26:36;30.08;;;24.02;;
20093;SDS011;10206;48.012;10.030;2022-08-19T05:29:03;30.98;;;23.27;;
20093;SDS011;10206;48.012;10.030;2022-08-19T05:31:29;35.25;;;25.30;;
20093;SDS011;10206;48.012;10.030;2022-08-19T05:33:55;30.38;;;25.05;;
20093;SDS011;10206;48.012;10.030;2022-08-19T05:36:23;30.83;;;24.15;;
20093;SDS011;10206;48.012;10.030;2022-08-19T05:38:49;32.55;;;25.33;;
20093;SDS011;10206;48.012;10.030;2022-08-19T05:41:17;33.30;;;25.50;;
20093;SDS011;10206;48.012;10.030;2022-08-19T05:43:43;33.78;;;25.65;;
20093;SDS011;10206;48.012;10.030;2022-08-19T05:46:13;31.05;;;25.48;;
20093;SDS011;10206;48.012;10.030;2022-08-19T05:48:41;33.67;;;24.63;;
20093;SDS011;10206;48.012;10.030;2022-08-19T05:51:07;34.38;;;25.85;;
20093;SDS011;10206;48.012;10.030;2022-08-19T05:53:33;31.85;;;25.25;;
20093;SDS011;10206;48.012;10.030;2022-08-19T05:56:03;34.25;;;26.33;;
20093;SDS011;10206;48.012;10.030;2022-08-19T05:58:29;36.20;;;27.50;;
20093;SDS011;10206;48.012;10.030;2022-08-19T06:00:56;38.08;;;27.88;;
20093;SDS011;10206;48.012;10.030;2022-08-19T06:03:22;38.05;;;28.27;;
20093;SDS011;10206;48.012;10.030;2022-08-19T06:05:49;38.55;;;28.95;;
20093;SDS011;10206;48.012;10.030;2022-08-19T06:08:15;38.95;;;28.27;;
20093;SDS011;10206;48.012;10.030;2022-08-19T06:10:43;40.28;;;28.35;;
20093;SDS011;10206;48.012;10.030;2022-08-19T06:13:09;38.45;;;28.17;;
20093;SDS011;10206;48.012;10.030;2022-08-19T06:15:35;35.13;;;26.98;;
20093;SDS011;10206;48.012;10.030;2022-08-19T06:18:01;35.78;;;26.20;;
20093;SDS011;10206;48.012;10.030;2022-08-19T06:20:27;33.88;;;25.08;;
20093;SDS011;10206;48.012;10.030;2022-08-19T06:22:53;34.58;;;25.33;;
20093;SDS011;10206;48.012;10.030;2022-08-19T06:25:19;30.90;;;23.95;;
20093;SDS011;10206;48.012;10.030;2022-08-19T06:27:45;30.17;;;22.63;;
20093;SDS011;10206;48.012;10.030;2022-08-19T06:30:11;23.95;;;20.13;;
20093;SDS011;10206;48.012;10.030;2022-08-19T06:32:38;23.90;;;18.38;;
20093;SDS011;10206;48.012;10.030;2022-08-19T06:35:04;21.58;;;17.73;;
20093;SDS011;10206;48.012;10.030;2022-08-19T06:37:30;20.05;;;16.67;;
20093;SDS011;10206;48.012;10.030;2022-08-19T06:39:57;19.90;;;16.25;;
20093;SDS011;10206;48.012;10.030;2022-08-19T06:42:23;18.63;;;15.82;;
20093;SDS011;10206;48.012;10.030;2022-08-19T06:44:49;17.92;;;15.18;;
20093;SDS011;10206;48.012;10.030;2022-08-19T06:47:17;18.92;;;15.50;;
20093;SDS011;10206;48.012;10.030;2022-08-19T06:49:43;21.65;;;16.25;;
20093;SDS011;10206;48.012;10.030;2022-08-19T06:52:09;22.17;;;17.30;;
20093;SDS011;10206;48.012;10.030;2022-08-19T06:54:39;23.02;;;16.88;;
20093;SDS011;10206;48.012;10.030;2022-08-19T06:57:06;25.05;;;18.10;;
20093;SDS011;10206;48.012;10.030;2022-08-19T06:59:34;23.52;;;17.83;;
20093;SDS011;10206;48.012;10.030;2022-08-19T07:02:01;22.88;;;18.25;;
20093;SDS011;10206;48.012;10.030;2022-08-19T07:04:30;24.25;;;19.27;;
20093;SDS011;10206;48.012;10.030;2022-08-19T07:07:01;26.58;;;19.85;;
20093;SDS011;10206;48.012;10.030;2022-08-19T07:09:27;25.45;;;19.63;;
20093;SDS011;10206;48.012;10.030;2022-08-19T07:11:54;24.33;;;20.13;;
20093;SDS011;10206;48.012;10.030;2022-08-19T07:14:21;25.60;;;20.33;;
20093;SDS011;10206;48.012;10.030;2022-08-19T07:16:48;24.67;;;19.65;;
20093;SDS011;10206;48.012;10.030;2022-08-19T07:19:15;26.00;;;19.55;;
20093;SDS011;10206;48.012;10.030;2022-08-19T07:21:41;25.88;;;19.25;;
20093;SDS011;10206;48.012;10.030;2022-08-19T07:24:08;24.75;;;19.75;;
20093;SDS011;10206;48.012;10.030;2022-08-19T07:26:37;25.80;;;20.10;;
20093;SDS011;10206;48.012;10.030;2022-08-19T07:29:06;27.92;;;21.85;;
20093;SDS011;10206;48.012;10.030;2022-08-19T07:31:32;27.23;;;21.27;;
20093;SDS011;10206;48.012;10.030;2022-08-19T07:34:05;28.58;;;21.88;;
20093;SDS011;10206;48.012;10.030;2022-08-19T07:36:32;25.88;;;20.10;;
20093;SDS011;10206;48.012;10.030;2022-08-19T07:39:00;24.95;;;19.48;;
20093;SDS011;10206;48.012;10.030;2022-08-19T07:41:27;25.83;;;20.02;;
20093;SDS011;10206;48.012;10.030;2022-08-19T07:43:54;28.58;;;20.85;;
20093;SDS011;10206;48.012;10.030;2022-08-19T07:46:20;27.40;;;20.38;;
20093;SDS011;10206;48.012;10.030;2022-08-19T07:48:47;25.38;;;18.92;;
20093;SDS011;10206;48.012;10.030;2022-08-19T07:51:15;24.20;;;19.40;;
20093;SDS011;10206;48.012;10.030;2022-08-19T07:53:42;25.48;;;18.73;;
20093;SDS011;10206;48.012;10.030;2022-08-19T07:56:09;25.42;;;19.35;;
20093;SDS011;10206;48.012;10.030;2022-08-19T07:58:37;27.88;;;20.65;;
20093;SDS011;10206;48.012;10.030;2022-08-19T08:01:04;25.73;;;19.80;;
20093;SDS011;10206;48.012;10.030;2022-08-19T08:03:31;29.38;;;21.13;;
20093;SDS011;10206;48.012;10.030;2022-08-19T08:06:16;29.27;;;21.17;;
20093;SDS011;10206;48.012;10.030;2022-08-19T08:09:02;29.45;;;22.73;;
20093;SDS011;10206;48.012;10.030;2022-08-19T08:14:21;32.92;;;24.42;;
20093;SDS011;10206;48.012;10.030;2022-08-19T08:16:48;30.63;;;24.45;;
20093;SDS011;10206;48.012;10.030;2022-08-19T08:19:15;32.97;;;25.17;;
20093;SDS011;10206;48.012;10.030;2022-08-19T08:21:42;35.22;;;25.88;;
20093;SDS011;10206;48.012;10.030;2022-08-19T08:24:08;31.58;;;23.60;;
20093;SDS011;10206;48.012;10.030;2022-08-19T08:26:34;31.67;;;23.95;;
20093;SDS011;10206;48.012;10.030;2022-08-19T08:29:00;36.53;;;26.40;;
20093;SDS011;10206;48.012;10.030;2022-08-19T08:31:26;36.78;;;26.63;;
20093;SDS011;10206;48.012;10.030;2022-08-19T08:33:53;35.00;;;26.27;;
20093;SDS011;10206;48.012;10.030;2022-08-19T08:36:19;38.22;;;27.05;;
20093;SDS011;10206;48.012;10.030;2022-08-19T08:38:46;38.90;;;28.20;;
20093;SDS011;10206;48.012;10.030;2022-08-19T08:41:31;40.55;;;28.77;;
20093;SDS011;10206;48.012;10.030;2022-08-19T08:44:00;39.42;;;28.08;;
20093;SDS011;10206;48.012;10.030;2022-08-19T08:46:32;40.60;;;28.67;;
20093;SDS011;10206;48.012;10.030;2022-08-19T08:49:02;41.45;;;29.02;;
20093;SDS011;10206;48.012;10.030;2022-08-19T08:53:59;43.95;;;30.90;;
20093;SDS011;10206;48.012;10.030;2022-08-19T08:56:26;44.47;;;30.42;;
20093;SDS011;10206;48.012;10.030;2022-08-19T09:01:17;45.70;;;32.58;;
20093;SDS011;10206;48.012;10.030;2022-08-19T09:03:44;47.50;;;33.40;;
20093;SDS011;10206;48.012;10.030;2022-08-19T09:06:31;44.53;;;32.20;;
20093;SDS011;10206;48.012;10.030;2022-08-19T09:09:05;44.65;;;31.98;;
20093;SDS011;10206;48.012;10.030;2022-08-19T09:16:35;46.88;;;33.30;;
20093;SDS011;10206;48.012;10.030;2022-08-19T09:19:05;51.35;;;35.13;;
20093;SDS011;10206;48.012;10.030;2022-08-19T09:21:32;47.67;;;34.40;;
20093;SDS011;10206;48.012;10.030;2022-08-19T09:23:59;49.15;;;34.55;;
20093;SDS011;10206;48.012;10.030;2022-08-19T09:26:25;48.75;;;34.05;;
20093;SDS011;10206;48.012;10.030;2022-08-19T09:28:52;48.70;;;34.50;;
20093;SDS011;10206;48.012;10.030;2022-08-19T09:31:20;48.42;;;33.47;;
20093;SDS011;10206;48.012;10.030;2022-08-19T09:33:47;45.40;;;32.55;;
20093;SDS011;10206;48.012;10.030;2022-08-19T09:36:15;41.70;;;30.33;;
20093;SDS011;10206;48.012;10.030;2022-08-19T09:38:41;43.88;;;32.40;;
20093;SDS011;10206;48.012;10.030;2022-08-19T09:41:17;43.90;;;30.23;;
20093;SDS011;10206;48.012;10.030;2022-08-19T09:43:45;40.05;;;30.20;;
20093;SDS011;10206;48.012;10.030;2022-08-19T09:46:11;41.40;;;30.63;;
20093;SDS011;10206;48.012;10.030;2022-08-19T09:48:41;42.15;;;30.77;;
20093;SDS011;10206;48.012;10.030;2022-08-19T09:51:11;40.40;;;29.73;;
20093;SDS011;10206;48.012;10.030;2022-08-19T09:53:40;40.90;;;30.30;;
20093;SDS011;10206;48.012;10.030;2022-08-19T09:56:07;40.80;;;30.38;;
20093;SDS011;10206;48.012;10.030;2022-08-19T09:58:33;42.83;;;30.95;;
20093;SDS011;10206;48.012;10.030;2022-08-19T10:01:00;42.65;;;31.05;;
20093;SDS011;10206;48.012;10.030;2022-08-19T10:03:27;40.33;;;29.42;;
20093;SDS011;10206;48.012;10.030;2022-08-19T10:05:53;38.08;;;29.52;;
20093;SDS011;10206;48.012;10.030;2022-08-19T10:08:20;40.13;;;29.23;;
20093;SDS011;10206;48.012;10.030;2022-08-19T10:10:47;40.97;;;30.67;;
20093;SDS011;10206;48.012;10.030;2022-08-19T10:13:15;39.75;;;28.98;;
20093;SDS011;10206;48.012;10.030;2022-08-19T10:15:41;40.42;;;30.50;;
20093;SDS011;10206;48.012;10.030;2022-08-19T10:18:07;41.78;;;29.95;;
20093;SDS011;10206;48.012;10.030;2022-08-19T10:20:33;40.72;;;30.10;;
20093;SDS011;10206;48.012;10.030;2022-08-19T10:23:01;42.28;;;30.80;;
20093;SDS011;10206;48.012;10.030;2022-08-19T10:25:27;40.67;;;30.27;;
20093;SDS011;10206;48.012;10.030;2022-08-19T10:27:53;39.10;;;29.52;;
20093;SDS011;10206;48.012;10.030;2022-08-19T10:30:19;40.50;;;30.55;;
20093;SDS011;10206;48.012;10.030;2022-08-19T10:32:45;40.33;;;30.65;;
20093;SDS011;10206;48.012;10.030;2022-08-19T10:35:11;39.65;;;30.08;;
20093;SDS011;10206;48.012;10.030;2022-08-19T10:37:38;41.47;;;30.65;;
20093;SDS011;10206;48.012;10.030;2022-08-19T10:40:04;41.38;;;30.08;;
20093;SDS011;10206;48.012;10.030;2022-08-19T10:42:32;39.83;;;29.52;;
20093;SDS011;10206;48.012;10.030;2022-08-19T10:44:58;41.80;;;30.77;;
20093;SDS011;10206;48.012;10.030;2022-08-19T10:47:24;43.03;;;31.20;;
20093;SDS011;10206;48.012;10.030;2022-08-19T10:49:50;45.85;;;31.40;;
20093;SDS011;10206;48.012;10.030;2022-08-19T10:52:35;39.53;;;29.80;;
20093;SDS011;10206;48.012;10.030;2022-08-19T10:55:05;38.85;;;29.60;;
20093;SDS011;10206;48.012;10.030;2022-08-19T10:57:51;36.70;;;27.27;;
20093;SDS011;10206;48.012;10.030;2022-08-19T11:00:18;36.20;;;26.98;;
20093;SDS011;10206;48.012;10.030;2022-08-19T11:02:44;32.17;;;24.48;;
20093;SDS011;10206;48.012;10.030;2022-08-19T11:05:11;32.33;;;25.38;;
20093;SDS011;10206;48.012;10.030;2022-08-19T11:07:40;29.50;;;23.67;;
20093;SDS011;10206;48.012;10.030;2022-08-19T11:10:08;33.80;;;25.98;;
20093;SDS011;10206;48.012;10.030;2022-08-19T11:12:36;30.25;;;24.00;;
20093;SDS011;10206;48.012;10.030;2022-08-19T11:15:04;30.58;;;23.40;;
20093;SDS011;10206;48.012;10.030;2022-08-19T11:17:30;30.83;;;23.60;;
20093;SDS011;10206;48.012;10.030;2022-08-19T11:19:56;26.98;;;22.17;;
20093;SDS011;10206;48.012;10.030;2022-08-19T11:22:22;25.48;;;21.10;;
20093;SDS011;10206;48.012;10.030;2022-08-19T11:24:48;25.42;;;21.33;;
20093;SDS011;10206;48.012;10.030;2022-08-19T11:27:14;25.08;;;20.95;;
20093;SDS011;10206;48.012;10.030;2022-08-19T11:29:40;27.42;;;21.70;;
20093;SDS011;10206;48.012;10.030;2022-08-19T11:32:08;26.63;;;21.33;;
20093;SDS011;10206;48.012;10.030;2022-08-19T11:34:34;27.35;;;21.52;;
20093;SDS011;10206;48.012;10.030;2022-08-19T11:37:01;26.05;;;21.88;;
20093;SDS011;10206;48.012;10.030;2022-08-19T11:39:29;24.90;;;19.67;;
20093;SDS011;10206;48.012;10.030;2022-08-19T11:41:55;25.63;;;20.17;;
20093;SDS011;10206;48.012;10.030;2022-08-19T11:44:23;24.40;;;19.27;;
20093;SDS011;10206;48.012;10.030;2022-08-19T11:46:49;21.52;;;18.38;;
20093;SDS011;10206;48.012;10.030;2022-08-19T11:49:16;22.83;;;19.17;;
20093;SDS011;10206;48.012;10.030;2022-08-19T11:51:44;23.55;;;19.65;;
20093;SDS011;10206;48.012;10.030;2022-08-19T11:54:11;22.83;;;19.52;;
20093;SDS011;10206;48.012;10.030;2022-08-19T11:56:38;19.77;;;17.45;;
20093;SDS011;10206;48.012;10.030;2022-08-19T11:59:04;21.08;;;17.58;;
20093;SDS011;10206;48.012;10.030;2022-08-19T12:01:30;21.05;;;18.25;;
20093;SDS011;10206;48.012;10.030;2022-08-19T12:03:57;21.48;;;18.90;;
20093;SDS011;10206;48.012;10.030;2022-08-19T12:06:27;24.88;;;19.10;;
20093;SDS011;10206;48.012;10.030;2022-08-19T12:08:55;22.77;;;17.77;;
20093;SDS011;10206;48.012;10.030;2022-08-19T12:11:21;21.42;;;17.63;;
20093;SDS011;10206;48.012;10.030;2022-08-19T12:13:48;23.75;;;20.30;;
20093;SDS011;10206;48.012;10.030;2022-08-19T12:16:16;21.85;;;17.20;;
20093;SDS011;10206;48.012;10.030;2022-08-19T12:18:43;21.02;;;17.83;;
20093;SDS011;10206;48.012;10.030;2022-08-19T12:21:12;21.13;;;17.98;;
20093;SDS011;10206;48.012;10.030;2022-08-19T12:23:39;20.08;;;17.45;;
20093;SDS011;10206;48.012;10.030;2022-08-19T12:26:05;18.83;;;16.27;;
20093;SDS011;10206;48.012;10.030;2022-08-19T12:28:31;18.90;;;16.42;;
20093;SDS011;10206;48.012;10.030;2022-08-19T12:30:57;17.38;;;15.45;;
20093;SDS011;10206;48.012;10.030;2022-08-19T12:33:23;17.20;;;15.40;;
20093;SDS011;10206;48.012;10.030;2022-08-19T12:35:52;19.95;;;15.77;;
20093;SDS011;10206;48.012;10.030;2022-08-19T12:38:18;16.38;;;14.55;;
20093;SDS011;10206;48.012;10.030;2022-08-19T12:40:47;16.67;;;13.73;;
20093;SDS011;10206;48.012;10.030;2022-08-19T12:43:15;16.20;;;14.32;;
20093;SDS011;10206;48.012;10.030;2022-08-19T12:45:41;16.95;;;14.43;;
20093;SDS011;10206;48.012;10.030;2022-08-19T12:48:09;16.55;;;14.65;;
20093;SDS011;10206;48.012;10.030;2022-08-19T12:50:35;15.95;;;14.07;;
20093;SDS011;10206;48.012;10.030;2022-08-19T12:53:01;18.20;;;16.30;;
20093;SDS011;10206;48.012;10.030;2022-08-19T12:55:27;16.42;;;14.57;;
20093;SDS011;10206;48.012;10.030;2022-08-19T12:57:54;18.13;;;15.52;;
20093;SDS011;10206;48.012;10.030;2022-08-19T13:00:20;18.05;;;15.70;;
20093;SDS011;10206;48.012;10.030;2022-08-19T13:02:48;18.42;;;16.02;;
20093;SDS011;10206;48.012;10.030;2022-08-19T13:05:16;17.77;;;14.95;;
20093;SDS011;10206;48.012;10.030;2022-08-19T13:07:46;19.15;;;16.77;;
20093;SDS011;10206;48.012;10.030;2022-08-19T13:10:13;18.45;;;16.45;;
20093;SDS011;10206;48.012;10.030;2022-08-19T13:12:40;19.88;;;16.45;;
20093;SDS011;10206;48.012;10.030;2022-08-19T13:15:07;21.40;;;18.20;;
20093;SDS011;10206;48.012;10.030;2022-08-19T13:17:33;20.55;;;17.90;;
20093;SDS011;10206;48.012;10.030;2022-08-19T13:19:59;20.50;;;17.92;;
20093;SDS011;10206;48.012;10.030;2022-08-19T13:22:25;21.70;;;18.52;;
20093;SDS011;10206;48.012;10.030;2022-08-19T13:24:52;21.98;;;18.13;;
20093;SDS011;10206;48.012;10.030;2022-08-19T13:27:18;24.23;;;19.38;;
20093;SDS011;10206;48.012;10.030;2022-08-19T13:29:44;22.48;;;18.90;;
20093;SDS011;10206;48.012;10.030;2022-08-19T13:32:29;24.13;;;18.75;;
20093;SDS011;10206;48.012;10.030;2022-08-19T13:35:14;24.67;;;19.83;;
20093;SDS011;10206;48.012;10.030;2022-08-19T13:37:40;25.83;;;20.38;;
20093;SDS011;10206;48.012;10.030;2022-08-19T13:40:07;23.60;;;20.42;;
20093;SDS011;10206;48.012;10.030;2022-08-19T13:42:37;24.05;;;20.17;;
20093;SDS011;10206;48.012;10.030;2022-08-19T13:45:04;23.50;;;20.02;;
20093;SDS011;10206;48.012;10.030;2022-08-19T13:47:31;26.45;;;20.75;;
20093;SDS011;10206;48.012;10.030;2022-08-19T13:49:59;25.38;;;21.02;;
20093;SDS011;10206;48.012;10.030;2022-08-19T13:52:25;28.10;;;20.60;;
20093;SDS011;10206;48.012;10.030;2022-08-19T13:54:51;26.63;;;20.40;;
20093;SDS011;10206;48.012;10.030;2022-08-19T13:57:17;23.80;;;20.10;;
20093;SDS011;10206;48.012;10.030;2022-08-19T13:59:43;22.75;;;19.73;;
20093;SDS011;10206;48.012;10.030;2022-08-19T14:02:09;22.30;;;19.50;;
20093;SDS011;10206;48.012;10.030;2022-08-19T14:04:35;22.40;;;19.60;;
20093;SDS011;10206;48.012;10.030;2022-08-19T14:07:02;19.95;;;17.65;;
20093;SDS011;10206;48.012;10.030;2022-08-19T14:09:28;17.77;;;15.57;;
20093;SDS011;10206;48.012;10.030;2022-08-19T14:11:54;17.48;;;15.57;;
20093;SDS011;10206;48.012;10.030;2022-08-19T14:14:20;16.73;;;14.88;;
20093;SDS011;10206;48.012;10.030;2022-08-19T14:16:47;16.90;;;14.50;;
20093;SDS011;10206;48.012;10.030;2022-08-19T14:19:13;15.48;;;13.75;;
20093;SDS011;10206;48.012;10.030;2022-08-19T14:21:39;14.27;;;12.45;;
20093;SDS011;10206;48.012;10.030;2022-08-19T14:24:06;14.55;;;12.60;;